Time;durP1;ratioP1;P1;durP2;ratioP2;P2;SDS_P1;SDS_P2;PMS_P1;PMS_P2;Temp;Humidity;BMP_temperature;BMP_pressure;BME280_temperature;BME280_humidity;BME280_pressure;Samples;Min_cycle;Max_cycle;Signal;HPM_P1;HPM_P2
2021/06/19 00:00:00;;;;;;;0.07;0.07;;;20.40;91.00;;;;;;5026549;28;20103;-85
2021/06/19 00:02:26;;;;;;;0.30;0.27;;;20.30;91.10;;;;;;5017885;28;20041;-85
2021/06/19 00:04:51;;;;;;;0.27;0.27;;;20.30;91.10;;;;;;5015627;28;20119;-84
2021/06/19 00:07:17;;;;;;;0.00;0.00;;;20.20;91.20;;;;;;5023845;28;20025;-84
2021/06/19 00:09:43;;;;;;;0.10;0.10;;;20.00;91.70;;;;;;5010806;28;20033;-85
2021/06/19 00:12:09;;;;;;;0.00;0.00;;;20.10;91.50;;;;;;5009858;28;20036;-84
2021/06/19 00:14:36;;;;;;;0.52;0.47;;;20.20;91.30;;;;;;5015710;28;20033;-85
2021/06/19 00:17:01;;;;;;;0.30;0.30;;;20.10;91.60;;;;;;5025998;28;20560;-85
2021/06/19 00:19:27;;;;;;;0.47;0.47;;;20.10;91.70;;;;;;5019509;28;20041;-84
2021/06/19 00:21:53;;;;;;;0.27;0.20;;;20.10;92.20;;;;;;5014722;28;20399;-84
2021/06/19 00:24:22;;;;;;;0.10;0.10;;;19.90;92.30;;;;;;5010199;28;20785;-84
2021/06/19 00:26:48;;;;;;;0.40;0.40;;;19.80;92.90;;;;;;5022904;28;20396;-85
2021/06/19 00:29:15;;;;;;;0.10;0.10;;;19.50;93.90;;;;;;5023140;28;20509;-85
2021/06/19 00:31:41;;;;;;;0.10;0.10;;;19.40;94.50;;;;;;5011815;28;20030;-85
2021/06/19 00:34:07;;;;;;;0.08;0.08;;;19.30;95.40;;;;;;5014851;28;20065;-85
2021/06/19 00:36:33;;;;;;;0.15;0.15;;;19.20;96.00;;;;;;5023647;28;20037;-85
2021/06/19 00:38:59;;;;;;;0.22;0.22;;;19.10;97.10;;;;;;5025307;28;20042;-84
2021/06/19 00:41:26;;;;;;;0.10;0.10;;;19.20;97.00;;;;;;5020098;28;20749;-84
2021/06/19 00:43:52;;;;;;;;;;;19.60;96.30;;;;;;5019218;28;20030;-85
2021/06/19 00:46:17;;;;;;;0.35;0.35;;;19.30;96.80;;;;;;5023969;28;20267;-85
2021/06/19 00:48:43;;;;;;;0.53;0.40;;;19.60;96.10;;;;;;5013778;28;20022;-84
2021/06/19 00:51:09;;;;;;;0.40;0.40;;;19.90;95.20;;;;;;5012062;28;20030;-84
2021/06/19 00:53:35;;;;;;;0.10;0.10;;;19.80;95.60;;;;;;5020808;28;20025;-84
2021/06/19 00:56:02;;;;;;;0.23;0.23;;;19.50;96.30;;;;;;5024274;28;20032;-83
2021/06/19 00:58:28;;;;;;;0.10;0.10;;;19.50;96.70;;;;;;5022111;28;20490;-84
2021/06/19 01:00:54;;;;;;;;;;;19.20;98.00;;;;;;5023229;28;20504;-84
2021/06/19 01:03:20;;;;;;;0.30;0.30;;;19.30;97.90;;;;;;5017531;28;19951;-84
2021/06/19 01:05:46;;;;;;;1.03;0.83;;;19.20;98.40;;;;;;5038054;28;20058;-84
2021/06/19 01:08:11;;;;;;;0.20;0.20;;;19.20;98.30;;;;;;5021054;28;20062;-84
2021/06/19 01:10:37;;;;;;;0.50;0.50;;;19.20;98.50;;;;;;5013693;28;20030;-84
2021/06/19 01:13:06;;;;;;;0.27;0.27;;;19.20;99.90;;;;;;5023365;28;20028;-83
2021/06/19 01:15:32;;;;;;;0.32;0.32;;;19.00;99.90;;;;;;5015585;28;20044;-83
2021/06/19 01:17:58;;;;;;;0.03;0.03;;;19.00;99.90;;;;;;5018072;28;20025;-83
2021/06/19 01:20:25;;;;;;;0.30;0.30;;;19.00;99.90;;;;;;5024222;28;20087;-84
2021/06/19 01:22:53;;;;;;;0.57;0.57;;;18.80;99.90;;;;;;5019450;28;20045;-84
2021/06/19 01:25:21;;;;;;;0.10;0.10;;;18.90;99.90;;;;;;5017814;28;20143;-84
2021/06/19 01:27:49;;;;;;;0.20;0.20;;;19.00;99.90;;;;;;5015510;28;20079;-85
2021/06/19 01:30:16;;;;;;;0.15;0.15;;;19.10;99.90;;;;;;5021529;28;20021;-85
2021/06/19 01:32:42;;;;;;;0.30;0.30;;;18.80;99.90;;;;;;5020116;28;20043;-85
2021/06/19 01:35:09;;;;;;;1.17;0.68;;;18.80;99.90;;;;;;5015018;28;20029;-84
2021/06/19 01:37:37;;;;;;;0.47;0.40;;;18.60;99.90;;;;;;5036163;28;20140;-84
2021/06/19 01:40:15;;;;;;;0.30;0.30;;;18.60;99.90;;;;;;5018994;28;20107;-84
2021/06/19 01:42:43;;;;;;;0.00;0.00;;;18.80;99.90;;;;;;5036660;28;20083;-84
2021/06/19 01:45:17;;;;;;;0.57;0.50;;;18.60;99.90;;;;;;5021588;28;20059;-84
2021/06/19 01:47:44;;;;;;;0.88;0.82;;;18.60;99.90;;;;;;5021389;28;20797;-84
2021/06/19 01:50:13;;;;;;;7.32;1.25;;;18.60;99.90;;;;;;5020792;28;20104;-84
2021/06/19 01:52:39;;;;;;;0.20;0.20;;;18.40;99.90;;;;;;5019279;28;20128;-84
2021/06/19 01:55:06;;;;;;;1.00;0.55;;;18.40;99.90;;;;;;5016913;28;20026;-85
2021/06/19 01:57:32;;;;;;;;;;;18.50;99.90;;;;;;5027083;28;20033;-84
2021/06/19 02:00:19;;;;;;;0.57;0.57;;;18.60;99.90;;;;;;5019562;28;19913;-84
2021/06/19 02:02:44;;;;;;;0.45;0.40;;;18.50;99.90;;;;;;5019333;28;20032;-84
2021/06/19 02:05:12;;;;;;;0.00;0.00;;;18.50;99.90;;;;;;5011986;28;20041;-84
2021/06/19 02:07:47;;;;;;;2.47;0.93;;;18.50;99.90;;;;;;5024692;28;20053;-84
2021/06/19 02:10:13;;;;;;;0.30;0.30;;;18.50;99.90;;;;;;5030707;28;20031;-84
2021/06/19 02:12:40;;;;;;;1.02;0.75;;;18.60;99.90;;;;;;5014790;28;20088;-84
2021/06/19 02:15:06;;;;;;;0.45;0.45;;;18.40;99.90;;;;;;5011232;28;20048;-85
2021/06/19 02:17:32;;;;;;;0.82;0.75;;;18.40;99.90;;;;;;5011515;28;20040;-85
2021/06/19 02:19:58;;;;;;;0.10;0.10;;;18.50;99.90;;;;;;5025095;28;20022;-85
2021/06/19 02:22:23;;;;;;;0.97;0.87;;;18.40;99.90;;;;;;5017812;28;20117;-85
2021/06/19 02:24:49;;;;;;;0.33;0.23;;;18.40;99.90;;;;;;5026904;28;20037;-85
2021/06/19 02:27:15;;;;;;;1.67;1.00;;;18.40;99.90;;;;;;5023874;28;20029;-86
2021/06/19 02:29:42;;;;;;;1.00;0.63;;;18.30;99.90;;;;;;5018008;28;20022;-86
2021/06/19 02:32:09;;;;;;;5.07;1.77;;;18.40;99.90;;;;;;5021974;28;20454;-85
2021/06/19 02:34:38;;;;;;;0.55;0.55;;;18.40;99.90;;;;;;5019817;28;20080;-85
2021/06/19 02:37:05;;;;;;;0.50;0.47;;;18.50;99.90;;;;;;5025367;28;20495;-85
2021/06/19 02:39:32;;;;;;;0.30;0.30;;;18.50;99.90;;;;;;5025309;28;20029;-84
2021/06/19 02:41:57;;;;;;;0.40;0.40;;;18.70;99.90;;;;;;5020168;28;20764;-84
2021/06/19 02:44:23;;;;;;;0.30;0.30;;;18.80;99.90;;;;;;5017988;28;20040;-84
2021/06/19 02:46:49;;;;;;;0.40;0.40;;;18.80;99.90;;;;;;5014935;28;20120;-85
2021/06/19 02:49:15;;;;;;;1.27;0.50;;;18.80;99.90;;;;;;5020861;28;20032;-85
2021/06/19 02:51:41;;;;;;;0.17;0.17;;;18.90;99.90;;;;;;5019428;28;20279;-85
2021/06/19 02:54:07;;;;;;;0.20;0.20;;;19.00;99.90;;;;;;5022141;28;20498;-85
2021/06/19 02:56:33;;;;;;;0.33;0.33;;;19.10;99.90;;;;;;5019957;28;20033;-85
2021/06/19 02:58:59;;;;;;;1.00;1.00;;;19.20;99.90;;;;;;5014890;28;20021;-84
2021/06/19 03:01:25;;;;;;;0.30;0.30;;;19.10;99.90;;;;;;5024557;28;20189;-85
2021/06/19 03:03:51;;;;;;;0.10;0.10;;;19.20;99.90;;;;;;5025964;28;20534;-84
2021/06/19 03:06:17;;;;;;;0.30;0.30;;;19.00;99.90;;;;;;5014140;28;20072;-84
2021/06/19 03:08:43;;;;;;;;;;;19.00;99.90;;;;;;5020289;28;20033;-84
2021/06/19 03:11:09;;;;;;;0.30;0.30;;;18.90;99.90;;;;;;5033923;28;19909;-84
2021/06/19 03:13:35;;;;;;;2.23;0.87;;;18.70;99.90;;;;;;5015264;28;20864;-85
2021/06/19 03:16:01;;;;;;;0.73;0.50;;;18.70;99.90;;;;;;5018869;28;20403;-84
2021/06/19 03:18:27;;;;;;;0.13;0.13;;;18.80;99.90;;;;;;5031973;28;20034;-85
2021/06/19 03:20:53;;;;;;;0.30;0.30;;;18.80;99.90;;;;;;5035566;28;20116;-85
2021/06/19 03:23:19;;;;;;;0.40;0.40;;;18.80;99.90;;;;;;5019264;28;20044;-84
2021/06/19 03:25:45;;;;;;;24.70;0.87;;;19.00;99.90;;;;;;5016689;28;20026;-85
2021/06/19 03:28:12;;;;;;;0.37;0.37;;;19.00;99.90;;;;;;5024261;28;20052;-84
2021/06/19 03:30:40;;;;;;;0.60;0.55;;;19.10;99.90;;;;;;5017186;28;20014;-84
2021/06/19 03:33:08;;;;;;;3.95;1.73;;;19.10;99.90;;;;;;5023018;28;20030;-84
2021/06/19 03:35:34;;;;;;;0.20;0.20;;;19.00;99.90;;;;;;5021386;28;20029;-85
2021/06/19 03:38:00;;;;;;;0.30;0.30;;;19.10;99.90;;;;;;5016520;28;20035;-84
2021/06/19 03:40:28;;;;;;;0.20;0.20;;;19.20;99.90;;;;;;5020818;28;20029;-84
2021/06/19 03:42:55;;;;;;;0.47;0.47;;;19.30;99.90;;;;;;5035316;28;20823;-84
2021/06/19 03:45:27;;;;;;;0.32;0.32;;;19.20;99.90;;;;;;5035598;28;20119;-84
2021/06/19 03:47:56;;;;;;;0.28;0.28;;;19.20;99.90;;;;;;5018249;28;20025;-83
2021/06/19 03:50:23;;;;;;;0.32;0.32;;;19.30;99.90;;;;;;5012700;28;20046;-83
2021/06/19 03:52:49;;;;;;;1.13;0.40;;;19.30;99.90;;;;;;5026258;28;20497;-83
2021/06/19 03:55:15;;;;;;;0.45;0.43;;;19.20;99.90;;;;;;5019919;28;20026;-85
2021/06/19 03:57:41;;;;;;;0.63;0.52;;;19.20;99.90;;;;;;5021365;28;20385;-85
2021/06/19 04:00:09;;;;;;;0.20;0.20;;;19.30;99.90;;;;;;5010058;28;20052;-85
2021/06/19 04:02:36;;;;;;;0.20;0.20;;;19.30;99.90;;;;;;5016718;28;20029;-85
2021/06/19 04:05:02;;;;;;;0.43;0.28;;;19.30;99.90;;;;;;5013371;28;20423;-85
2021/06/19 04:07:28;;;;;;;0.63;0.63;;;19.40;99.90;;;;;;5021163;28;20034;-86
2021/06/19 04:09:54;;;;;;;0.20;0.20;;;19.30;99.90;;;;;;5026450;28;20025;-85
2021/06/19 04:12:23;;;;;;;0.63;0.63;;;19.30;99.90;;;;;;5024235;28;20025;-85
2021/06/19 04:14:49;;;;;;;0.93;0.60;;;19.30;99.90;;;;;;5036610;28;20525;-86
2021/06/19 04:17:16;;;;;;;0.65;0.32;;;19.30;99.90;;;;;;5023433;28;20028;-85
2021/06/19 04:19:43;;;;;;;0.88;0.77;;;19.30;99.90;;;;;;5017337;28;20506;-85
2021/06/19 04:22:10;;;;;;;0.30;0.30;;;19.10;99.90;;;;;;5034514;28;20111;-86
2021/06/19 04:24:36;;;;;;;;;;;19.10;99.90;;;;;;5019174;28;20060;-85
2021/06/19 04:27:03;;;;;;;1.00;0.73;;;19.20;99.90;;;;;;5027400;28;20379;-84
2021/06/19 04:29:30;;;;;;;1.20;0.63;;;19.00;99.90;;;;;;5017949;28;20087;-84
2021/06/19 04:31:58;;;;;;;0.30;0.30;;;18.90;99.90;;;;;;5017489;28;20033;-84
2021/06/19 04:34:25;;;;;;;0.22;0.22;;;18.80;99.90;;;;;;5028221;28;20042;-84
2021/06/19 04:36:52;;;;;;;8.35;1.65;;;18.90;99.90;;;;;;5026063;28;20065;-84
2021/06/19 04:39:18;;;;;;;0.70;0.52;;;18.90;99.90;;;;;;5022683;28;20037;-84
2021/06/19 04:42:03;;;;;;;0.52;0.52;;;19.00;99.90;;;;;;5029101;28;20048;-84
2021/06/19 04:45:11;;;;;;;0.32;0.32;;;19.10;99.90;;;;;;5035062;28;20700;-83
2021/06/19 04:47:18;;;;;;;7.68;1.73;;;19.10;99.90;;;;;;5016881;28;20041;-84
2021/06/19 04:49:44;;;;;;;0.07;0.07;;;19.10;99.90;;;;;;5023941;28;20408;-85
2021/06/19 04:52:10;;;;;;;0.70;0.70;;;19.20;99.90;;;;;;5036197;28;20073;-89
2021/06/19 04:54:38;;;;;;;1.70;0.77;;;19.20;99.90;;;;;;5042978;28;20030;-88
2021/06/19 04:57:06;;;;;;;0.63;0.63;;;19.30;99.90;;;;;;5037315;28;20034;-88
2021/06/19 04:59:32;;;;;;;0.60;0.60;;;19.50;99.90;;;;;;5022419;28;20116;-88
2021/06/19 05:01:59;;;;;;;;;;;19.70;99.90;;;;;;5042853;28;20025;-90
2021/06/19 05:04:24;;;;;;;2.05;0.73;;;19.70;99.90;;;;;;5023768;28;19957;-90
2021/06/19 05:06:50;;;;;;;0.20;0.20;;;20.00;99.90;;;;;;5017086;28;20163;-90
2021/06/19 05:09:16;;;;;;;0.73;0.47;;;20.20;99.90;;;;;;5036737;28;20495;-89
2021/06/19 05:11:42;;;;;;;0.67;0.10;;;20.30;99.90;;;;;;5033311;28;20657;-88
2021/06/19 05:14:07;;;;;;;0.23;0.20;;;20.40;99.90;;;;;;5026529;28;20017;-88
2021/06/19 05:16:33;;;;;;;0.43;0.43;;;20.30;99.90;;;;;;5035764;28;21345;-86
2021/06/19 05:18:59;;;;;;;3.77;0.47;;;20.40;99.90;;;;;;5024307;28;20075;-87
2021/06/19 05:21:25;;;;;;;0.17;0.13;;;20.40;99.90;;;;;;5028103;28;20034;-88
2021/06/19 05:23:50;;;;;;;0.20;0.20;;;20.60;99.90;;;;;;5029924;28;20120;-87
2021/06/19 05:26:16;;;;;;;0.30;0.30;;;20.70;99.90;;;;;;5036338;28;20494;-86
2021/06/19 05:28:42;;;;;;;7.78;1.65;;;20.90;99.90;;;;;;5018034;28;20108;-86
2021/06/19 05:31:08;;;;;;;0.17;0.17;;;20.90;99.90;;;;;;5031270;28;20049;-86
2021/06/19 05:33:33;;;;;;;0.30;0.23;;;21.10;99.80;;;;;;5015471;28;20014;-87
2021/06/19 05:36:00;;;;;;;1.07;0.97;;;21.30;99.90;;;;;;5020166;28;20032;-86
2021/06/19 05:38:26;;;;;;;0.88;0.82;;;21.70;99.50;;;;;;5031605;28;20113;-85
2021/06/19 05:40:51;;;;;;;0.50;0.38;;;21.60;99.70;;;;;;5020359;28;20136;-85
2021/06/19 05:43:18;;;;;;;0.33;0.33;;;21.80;99.30;;;;;;5024199;28;20460;-86
2021/06/19 05:45:43;;;;;;;0.08;0.08;;;21.90;98.40;;;;;;5022525;28;20287;-87
2021/06/19 05:48:09;;;;;;;0.60;0.60;;;22.00;97.90;;;;;;5024835;28;20087;-87
2021/06/19 05:50:35;;;;;;;1.17;0.80;;;22.30;96.90;;;;;;5026601;28;20032;-86
2021/06/19 05:53:01;;;;;;;0.60;0.57;;;22.30;97.30;;;;;;5028327;28;20049;-86
2021/06/19 05:55:27;;;;;;;0.10;0.10;;;22.80;96.60;;;;;;5013327;28;20026;-86
2021/06/19 05:57:53;;;;;;;2.33;0.90;;;22.80;95.40;;;;;;5023058;28;20056;-86
2021/06/19 06:00:19;;;;;;;0.20;0.20;;;22.70;94.70;;;;;;5022847;28;20322;-87
2021/06/19 06:02:45;;;;;;;0.98;0.98;;;21.90;95.40;;;;;;5023338;28;20117;-86
2021/06/19 06:05:12;;;;;;;0.08;0.08;;;21.80;96.60;;;;;;5028094;28;20050;-86
2021/06/19 06:07:38;;;;;;;0.65;0.65;;;22.70;95.20;;;;;;5022686;28;20029;-87
2021/06/19 06:10:05;;;;;;;0.20;0.20;;;23.90;93.80;;;;;;5021053;28;20040;-87
2021/06/19 06:12:31;;;;;;;0.20;0.20;;;24.60;92.50;;;;;;5029579;28;20260;-87
2021/06/19 06:14:57;;;;;;;;;;;24.40;98.00;;;;;;5022742;28;20036;-87
2021/06/19 06:17:23;;;;;;;;;;;24.50;90.70;;;;;;5014219;28;19913;-87
2021/06/19 06:19:48;;;;;;;0.70;0.20;;;24.80;88.30;;;;;;5027338;28;19913;-87
2021/06/19 06:22:14;;;;;;;0.20;0.20;;;27.20;84.10;;;;;;5014744;28;20034;-86
2021/06/19 06:24:41;;;;;;;0.70;0.70;;;27.80;82.20;;;;;;5021545;28;20696;-87
2021/06/19 06:27:08;;;;;;;0.35;0.35;;;26.40;78.00;;;;;;5019514;28;20145;-87
2021/06/19 06:29:34;;;;;;;0.22;0.20;;;25.40;80.60;;;;;;5015618;28;20022;-87
2021/06/19 06:32:00;;;;;;;2.38;0.47;;;27.00;80.70;;;;;;5018415;28;20029;-87
2021/06/19 06:34:27;;;;;;;3.65;1.45;;;27.80;75.50;;;;;;5011547;28;20407;-87
2021/06/19 06:37:02;;;;;;;15.00;0.55;;;29.00;74.50;;;;;;5015419;28;20034;-86
2021/06/19 06:39:28;;;;;;;1.13;0.70;;;28.20;66.10;;;;;;5021703;28;20112;-86
2021/06/19 06:41:55;;;;;;;0.20;0.20;;;26.90;69.10;;;;;;5016056;28;20125;-87
2021/06/19 06:44:21;;;;;;;0.20;0.20;;;26.10;70.20;;;;;;5018838;28;20037;-86
2021/06/19 06:46:47;;;;;;;6.60;1.48;;;28.30;71.30;;;;;;5024473;28;20026;-86
2021/06/19 06:49:13;;;;;;;3.10;1.95;;;30.20;65.70;;;;;;5021767;28;20429;-87
2021/06/19 06:51:38;;;;;;;0.93;0.32;;;30.00;60.10;;;;;;5018822;28;20029;-86
2021/06/19 06:54:07;;;;;;;0.20;0.20;;;30.80;60.30;;;;;;5023555;28;20743;-86
2021/06/19 06:56:33;;;;;;;0.43;0.43;;;29.30;59.30;;;;;;5024646;28;20088;-87
2021/06/19 06:58:58;;;;;;;0.15;0.15;;;28.60;60.10;;;;;;5021065;28;20044;-86
2021/06/19 07:01:26;;;;;;;0.22;0.22;;;28.40;61.40;;;;;;5018133;28;20030;-85
2021/06/19 07:03:55;;;;;;;0.13;0.13;;;28.10;64.70;;;;;;5021330;28;20072;-85
2021/06/19 07:06:27;;;;;;;0.45;0.45;;;28.50;61.00;;;;;;5017013;28;20403;-85
2021/06/19 07:08:53;;;;;;;0.30;0.30;;;29.00;59.90;;;;;;5022293;28;20028;-85
2021/06/19 07:11:19;;;;;;;0.30;0.28;;;30.90;58.30;;;;;;5017583;28;20025;-84
2021/06/19 07:13:45;;;;;;;1.92;1.00;;;29.60;59.30;;;;;;5020065;28;20025;-85
2021/06/19 07:16:11;;;;;;;0.85;0.43;;;28.70;58.70;;;;;;5015090;28;20049;-85
2021/06/19 07:18:37;;;;;;;2.10;1.50;;;28.40;55.20;;;;;;5021380;28;20133;-85
2021/06/19 07:21:04;;;;;;;0.45;0.45;;;29.30;59.00;;;;;;5015558;28;20044;-85
2021/06/19 07:23:34;;;;;;;2.00;1.40;;;27.80;58.70;;;;;;5016185;28;20709;-85
2021/06/19 07:26:00;;;;;;;0.30;0.30;;;26.30;60.40;;;;;;5017426;28;20033;-86
2021/06/19 07:28:26;;;;;;;0.32;0.32;;;25.60;63.90;;;;;;5016955;28;20029;-86
2021/06/19 07:30:52;;;;;;;;;;;25.50;65.60;;;;;;5020073;28;20040;-86
2021/06/19 07:33:17;;;;;;;0.57;0.57;;;25.80;62.80;;;;;;5019357;28;19909;-85
2021/06/19 07:35:43;;;;;;;0.30;0.20;;;25.00;65.10;;;;;;5012311;28;20026;-85
2021/06/19 07:38:10;;;;;;;0.70;0.20;;;25.10;64.90;;;;;;5025047;28;20042;-86
2021/06/19 07:40:36;;;;;;;3.30;1.38;;;25.90;62.30;;;;;;5022594;28;20108;-84
2021/06/19 07:43:03;;;;;;;1.27;1.00;;;25.30;64.80;;;;;;5017719;28;20503;-86
2021/06/19 07:45:29;;;;;;;0.65;0.15;;;25.10;65.00;;;;;;5018099;28;20038;-86
2021/06/19 07:47:55;;;;;;;1.30;0.57;;;25.20;64.30;;;;;;5017903;28;20103;-86
2021/06/19 07:50:21;;;;;;;0.47;0.47;;;25.90;65.90;;;;;;5023622;28;20478;-86
2021/06/19 07:52:47;;;;;;;0.55;0.32;;;25.80;67.00;;;;;;5018726;28;20020;-85
2021/06/19 07:55:13;;;;;;;;;;;26.40;62.20;;;;;;5026810;28;20084;-88
2021/06/19 07:57:39;;;;;;;1.55;1.05;;;26.60;63.00;;;;;;5027485;28;19944;-88
2021/06/19 08:00:07;;;;;;;2.70;0.77;;;27.60;59.10;;;;;;5029423;28;20029;-88
2021/06/19 08:02:32;;;;;;;0.10;0.10;;;27.30;61.50;;;;;;5028274;28;20041;-88
2021/06/19 08:04:58;;;;;;;0.20;0.20;;;30.10;56.40;;;;;;5028788;28;20075;-88
2021/06/19 08:07:24;;;;;;;1.27;0.63;;;31.40;51.20;;;;;;5044731;28;20030;-88
2021/06/19 08:09:50;;;;;;;0.45;0.45;;;32.10;47.20;;;;;;5029461;28;20028;-88
2021/06/19 08:12:16;;;;;;;1.45;0.68;;;33.20;44.10;;;;;;5027783;28;20384;-88
2021/06/19 08:14:43;;;;;;;0.45;0.43;;;32.30;45.70;;;;;;5028075;28;20030;-88
2021/06/19 08:17:15;;;;;;;0.85;0.85;;;33.10;42.20;;;;;;5029301;28;20033;-89
2021/06/19 08:19:44;;;;;;;0.22;0.22;;;33.70;38.30;;;;;;5029510;28;20022;-88
2021/06/19 08:22:11;;;;;;;0.28;0.28;;;33.50;38.10;;;;;;5027961;28;20471;-88
2021/06/19 08:24:37;;;;;;;0.75;0.60;;;32.80;34.70;;;;;;5027696;28;20518;-88
2021/06/19 08:27:03;;;;;;;;;;;30.60;42.10;;;;;;5028507;28;20026;-88
2021/06/19 08:29:29;;;;;;;0.17;0.13;;;31.60;37.70;;;;;;5027861;28;20056;-88
2021/06/19 08:31:54;;;;;;;;;;;30.40;40.30;;;;;;5016685;28;20555;-89
2021/06/19 08:34:20;;;;;;;0.10;0.10;;;28.70;44.30;;;;;;5009400;28;19917;-88
2021/06/19 08:36:46;;;;;;;0.55;0.55;;;29.00;42.10;;;;;;5009495;28;20034;-89
2021/06/19 08:39:12;;;;;;;0.30;0.30;;;28.70;45.20;;;;;;5008078;28;20488;-88
2021/06/19 08:41:38;;;;;;;0.40;0.40;;;28.30;43.40;;;;;;5009716;28;20030;-89
2021/06/19 08:44:04;;;;;;;0.45;0.30;;;28.10;46.00;;;;;;5009298;28;20037;-89
2021/06/19 08:46:30;;;;;;;;;;;29.30;43.80;;;;;;5008308;28;20026;-89
2021/06/19 08:48:57;;;;;;;1.10;0.40;;;29.00;44.40;;;;;;5009102;28;20683;-89
2021/06/19 08:51:24;;;;;;;0.40;0.40;;;29.00;42.90;;;;;;5009136;28;20041;-89
2021/06/19 08:53:51;;;;;;;0.50;0.25;;;27.30;45.50;;;;;;5009318;28;20030;-89
2021/06/19 08:56:21;;;;;;;;;;;26.50;50.00;;;;;;5008430;28;20037;-89
2021/06/19 08:58:47;;;;;;;3.47;0.75;;;27.10;48.30;;;;;;5024167;28;19924;-88
2021/06/19 09:01:13;;;;;;;3.00;2.15;;;26.80;49.00;;;;;;5007858;28;20034;-88
2021/06/19 09:03:39;;;;;;;2.78;1.35;;;26.50;50.10;;;;;;5023650;28;20506;-89
2021/06/19 09:06:26;;;;;;;0.20;0.20;;;26.60;49.10;;;;;;5008177;28;20038;-88
2021/06/19 09:09:18;;;;;;;0.20;0.20;;;26.80;50.50;;;;;;5024252;28;20514;-89
2021/06/19 09:11:48;;;;;;;0.20;0.20;;;26.70;49.50;;;;;;4991161;28;20508;-89
2021/06/19 09:14:17;;;;;;;0.50;0.47;;;26.60;50.10;;;;;;5007799;28;20030;-89
2021/06/19 09:16:55;;;;;;;0.00;0.00;;;25.80;50.80;;;;;;5009595;28;20034;-89
2021/06/19 09:19:40;;;;;;;0.82;0.77;;;25.60;51.60;;;;;;5012779;28;20050;-88
2021/06/19 09:22:23;;;;;;;6.40;1.65;;;25.30;54.00;;;;;;5011632;28;20034;-89
2021/06/19 09:24:55;;;;;;;2.72;1.25;;;25.50;53.70;;;;;;5010817;28;20038;-89
2021/06/19 09:27:40;;;;;;;12.70;1.02;;;25.20;53.80;;;;;;5012637;28;20022;-89
2021/06/19 09:30:19;;;;;;;0.50;0.43;;;25.10;55.00;;;;;;5011235;28;20042;-88
2021/06/19 09:32:47;;;;;;;8.35;1.65;;;25.80;54.20;;;;;;5010600;28;20038;-88
2021/06/19 09:35:25;;;;;;;0.10;0.10;;;26.40;52.10;;;;;;5010963;28;20046;-88
2021/06/19 09:38:15;;;;;;;0.55;0.52;;;26.70;51.80;;;;;;5004844;28;20030;-89
2021/06/19 09:40:44;;;;;;;0.82;0.82;;;26.60;51.90;;;;;;5009127;28;20073;-89
2021/06/19 09:43:11;;;;;;;0.17;0.17;;;26.60;51.60;;;;;;5012176;28;20415;-89
2021/06/19 09:45:39;;;;;;;8.35;2.33;;;26.60;52.70;;;;;;5011854;28;20073;-89
2021/06/19 09:48:21;;;;;;;0.43;0.43;;;26.80;52.20;;;;;;5010965;28;20030;-89
2021/06/19 09:51:07;;;;;;;0.32;0.32;;;26.60;52.80;;;;;;5010461;28;20499;-89
2021/06/19 09:53:33;;;;;;;1.00;0.73;;;26.90;52.20;;;;;;5011916;28;20083;-89
2021/06/19 09:56:06;;;;;;;0.57;0.30;;;26.90;51.20;;;;;;5027149;28;20109;-89
2021/06/19 09:58:44;;;;;;;0.20;0.13;;;27.50;51.30;;;;;;5010715;28;20030;-89
2021/06/19 10:01:11;;;;;;;6.07;1.60;;;28.90;48.50;;;;;;5010148;28;20507;-90
2021/06/19 10:03:57;;;;;;;0.80;0.70;;;30.70;45.10;;;;;;5011567;28;20034;-89
2021/06/19 10:06:24;;;;;;;1.45;0.98;;;34.00;35.40;;;;;;5012024;28;20041;-89
2021/06/19 10:08:51;;;;;;;7.97;0.20;;;33.30;36.90;;;;;;5011625;28;20084;-90
2021/06/19 10:11:18;;;;;;;0.38;0.38;;;33.90;33.60;;;;;;5010367;28;20025;-89
2021/06/19 10:13:45;;;;;;;1.45;0.20;;;33.80;32.20;;;;;;5010198;28;20037;-89
2021/06/19 10:16:12;;;;;;;0.93;0.50;;;35.70;25.30;;;;;;5011691;28;20499;-90
2021/06/19 10:18:42;;;;;;;0.30;0.30;;;35.70;27.70;;;;;;5010400;28;20422;-89
2021/06/19 10:21:10;;;;;;;9.50;1.20;;;32.30;27.00;;;;;;5009868;28;20496;-88
2021/06/19 10:23:36;;;;;;;1.75;1.40;;;31.20;29.70;;;;;;5025940;28;20026;-89
2021/06/19 10:26:02;;;;;;;;;;;33.30;31.00;;;;;;5031335;28;20026;-89
2021/06/19 10:28:30;;;;;;;6.97;1.48;;;36.70;21.20;;;;;;5029853;28;19916;-89
2021/06/19 10:30:57;;;;;;;5.00;0.50;;;38.50;17.70;;;;;;5029209;28;20036;-89
2021/06/19 10:33:35;;;;;;;1.85;1.33;;;34.70;20.40;;;;;;5046486;28;20022;-89
2021/06/19 10:36:03;;;;;;;7.15;3.08;;;30.50;26.30;;;;;;5031005;28;20040;-89
2021/06/19 10:38:30;;;;;;;2.50;1.58;;;31.20;27.50;;;;;;5046293;28;20033;-89
2021/06/19 10:40:59;;;;;;;0.30;0.30;;;29.40;28.90;;;;;;5030262;28;20057;-89
2021/06/19 10:43:26;;;;;;;2.42;0.25;;;28.50;34.60;;;;;;5030890;28;20045;-89
2021/06/19 10:45:54;;;;;;;0.30;0.30;;;28.00;36.80;;;;;;5045773;28;20033;-88
2021/06/19 10:48:34;;;;;;;14.52;3.60;;;28.30;35.60;;;;;;5030771;28;20103;-89
2021/06/19 10:51:23;;;;;;;1.27;1.05;;;30.50;30.70;;;;;;5045582;28;20053;-88
2021/06/19 10:54:14;;;;;;;0.10;0.10;;;32.30;28.60;;;;;;5030785;28;20025;-89
2021/06/19 10:56:52;;;;;;;0.32;0.32;;;34.60;24.50;;;;;;5046035;28;20025;-89
2021/06/19 10:59:28;;;;;;;0.32;0.32;;;34.30;22.10;;;;;;5030197;28;20061;-88
2021/06/19 11:01:55;;;;;;;;;;;32.70;25.10;;;;;;5046345;28;20064;-88
2021/06/19 11:04:39;;;;;;;0.40;0.40;;;32.90;25.20;;;;;;5028798;28;19956;-88
2021/06/19 11:07:17;;;;;;;0.85;0.70;;;32.50;23.90;;;;;;5045751;28;20076;-88
2021/06/19 11:09:46;;;;;;;1.23;0.88;;;33.20;23.30;;;;;;5030284;28;20087;-88
2021/06/19 11:12:32;;;;;;;1.10;0.88;;;36.60;17.60;;;;;;5029939;28;20104;-88
2021/06/19 11:15:05;;;;;;;0.35;0.35;;;35.50;19.70;;;;;;5030561;28;20056;-88
2021/06/19 11:17:31;;;;;;;2.33;2.08;;;35.90;16.80;;;;;;5045407;28;20379;-87
2021/06/19 11:20:05;;;;;;;0.43;0.32;;;36.80;16.30;;;;;;5030438;28;20083;-89
2021/06/19 11:22:54;;;;;;;4.53;1.95;;;36.00;17.60;;;;;;5030284;28;20076;-88
2021/06/19 11:28:20;;;;;;;3.73;1.73;;;29.50;29.30;;;;;;5029484;28;20525;-88
2021/06/19 11:30:54;;;;;;;0.52;0.52;;;28.20;29.80;;;;;;5026192;28;20487;-88
2021/06/19 11:33:21;;;;;;;7.60;1.60;;;28.80;30.70;;;;;;5009808;28;20080;-88
2021/06/19 11:35:46;;;;;;;5.90;0.60;;;28.50;32.30;;;;;;5010151;28;20748;-88
2021/06/19 11:38:13;;;;;;;0.77;0.60;;;30.20;31.60;;;;;;5009630;28;20087;-88
2021/06/19 11:40:41;;;;;;;1.23;0.80;;;30.00;29.80;;;;;;5009853;28;20038;-88
2021/06/19 11:43:09;;;;;;;0.10;0.10;;;29.00;30.90;;;;;;5008777;28;20029;-87
2021/06/19 11:45:39;;;;;;;0.93;0.70;;;30.10;30.30;;;;;;5010095;28;20033;-87
2021/06/19 11:48:06;;;;;;;1.00;0.90;;;29.20;33.90;;;;;;5020830;28;20035;-87
2021/06/19 11:50:43;;;;;;;1.80;1.10;;;29.50;32.60;;;;;;5017080;28;20022;-90
2021/06/19 11:53:26;;;;;;;0.60;0.60;;;29.00;32.40;;;;;;5024838;28;20116;-90
2021/06/19 11:56:08;;;;;;;0.63;0.63;;;29.50;31.90;;;;;;5039091;28;20419;-93
2021/06/19 11:58:50;;;;;;;1.55;0.90;;;28.40;34.00;;;;;;5028059;28;20044;-91
2021/06/19 12:01:30;;;;;;;4.80;2.03;;;28.30;35.60;;;;;;5026027;28;20021;-89
2021/06/19 12:04:03;;;;;;;1.90;1.08;;;28.70;32.90;;;;;;5022061;28;20084;-89
2021/06/19 12:06:43;;;;;;;0.55;0.55;;;28.20;35.00;;;;;;5014351;28;20033;-88
2021/06/19 12:09:13;;;;;;;1.73;1.33;;;28.20;36.70;;;;;;5021453;28;20037;-88
2021/06/19 12:11:40;;;;;;;0.98;0.77;;;29.10;35.00;;;;;;5012349;28;20021;-89
2021/06/19 12:14:34;;;;;;;0.22;0.20;;;29.30;35.90;;;;;;5025629;28;20026;-88
2021/06/19 12:17:05;;;;;;;1.17;0.93;;;28.80;33.70;;;;;;5017436;28;20026;-92
2021/06/19 12:19:36;;;;;;;2.45;1.60;;;29.50;34.10;;;;;;5005095;28;20065;-91
2021/06/19 12:22:08;;;;;;;0.52;0.52;;;29.40;33.40;;;;;;5017473;28;20030;-89
2021/06/19 12:24:42;;;;;;;2.17;0.95;;;29.80;34.70;;;;;;5015544;28;20021;-90
2021/06/19 12:27:19;;;;;;;4.32;0.60;;;29.80;34.20;;;;;;5021349;28;20033;-90
2021/06/19 12:29:57;;;;;;;6.35;0.30;;;29.60;33.50;;;;;;5024547;28;20034;-89
2021/06/19 12:32:29;;;;;;;0.68;0.60;;;29.70;34.80;;;;;;5018988;28;20044;-87
2021/06/19 12:35:01;;;;;;;2.42;0.43;;;29.10;34.20;;;;;;5023102;28;20042;-88
2021/06/19 12:37:32;;;;;;;1.13;1.02;;;29.70;34.20;;;;;;5016368;28;20269;-87
2021/06/19 12:40:00;;;;;;;0.10;0.10;;;29.60;34.80;;;;;;5021309;28;20033;-87
2021/06/19 12:43:00;;;;;;;0.60;0.60;;;29.90;32.80;;;;;;5036816;28;20512;-87
2021/06/19 12:45:38;;;;;;;0.60;0.60;;;29.40;33.60;;;;;;5025797;28;20075;-86
2021/06/19 12:48:16;;;;;;;0.30;0.20;;;30.00;33.90;;;;;;5020616;28;20116;-88
2021/06/19 12:50:42;;;;;;;0.50;0.50;;;29.80;32.50;;;;;;5022853;28;20029;-89
2021/06/19 12:53:12;;;;;;;4.88;1.55;;;29.70;32.70;;;;;;5015331;28;20050;-88
2021/06/19 12:55:58;;;;;;;0.40;0.25;;;29.50;35.40;;;;;;5035002;28;20049;-88
2021/06/19 12:58:35;;;;;;;0.40;0.40;;;29.90;32.70;;;;;;5013646;28;20053;-88
2021/06/19 13:01:01;;;;;;;5.72;1.35;;;30.10;32.20;;;;;;5021006;28;20052;-90